createdAt,value
2023-09-09T00:01:52.380Z,24.06
2023-09-09T00:04:19.015Z,24.06
2023-09-09T00:06:45.647Z,24.05
2023-09-09T00:09:12.220Z,24.05
2023-09-09T00:11:38.720Z,24.04
2023-09-09T00:14:05.471Z,24.01
2023-09-09T00:16:35.062Z,24.00
2023-09-09T00:19:02.127Z,23.99
2023-09-09T00:21:28.645Z,23.98
2023-09-09T00:23:55.300Z,23.94
2023-09-09T00:26:21.864Z,23.91
2023-09-09T00:28:48.509Z,23.90
2023-09-09T00:31:15.024Z,23.87
2023-09-09T00:33:42.201Z,23.83
2023-09-09T00:36:08.726Z,23.80
2023-09-09T00:38:35.413Z,23.76
2023-09-09T00:41:22.020Z,23.71
2023-09-09T00:43:50.368Z,23.68
2023-09-09T00:46:18.045Z,23.66
2023-09-09T00:48:45.294Z,23.63
2023-09-09T00:51:13.037Z,23.59
2023-09-09T00:53:41.032Z,23.54
2023-09-09T00:56:07.763Z,23.48
2023-09-09T00:58:34.571Z,23.44
2023-09-09T01:01:01.974Z,23.40
2023-09-09T01:03:28.705Z,23.35
2023-09-09T01:05:55.564Z,23.30
2023-09-09T01:08:26.367Z,23.26
2023-09-09T01:10:53.642Z,23.23
2023-09-09T01:13:20.487Z,23.20
2023-09-09T01:15:47.851Z,23.17
2023-09-09T01:18:14.656Z,23.13
2023-09-09T01:20:46.049Z,23.09
2023-09-09T01:23:12.624Z,23.06
2023-09-09T01:25:39.221Z,23.03
2023-09-09T01:28:06.364Z,22.99
2023-09-09T01:30:32.916Z,22.95
2023-09-09T01:32:59.501Z,22.89
2023-09-09T01:35:26.281Z,22.85
2023-09-09T01:37:52.854Z,22.78
2023-09-09T01:40:19.478Z,22.73
2023-09-09T01:42:46.112Z,22.67
2023-09-09T01:45:12.679Z,22.61
2023-09-09T01:47:39.564Z,22.58
2023-09-09T01:50:06.744Z,22.53
2023-09-09T01:52:33.305Z,22.50
2023-09-09T01:54:59.796Z,22.44
2023-09-09T01:57:26.345Z,22.39
2023-09-09T01:59:52.905Z,22.33
2023-09-09T02:02:19.491Z,22.31
2023-09-09T02:04:46.088Z,22.29
2023-09-09T02:07:12.707Z,22.29
2023-09-09T02:09:39.337Z,22.28
2023-09-09T02:12:06.444Z,22.28
2023-09-09T02:14:34.557Z,22.27
2023-09-09T02:17:01.165Z,22.26
2023-09-09T02:19:27.668Z,22.24
2023-09-09T02:21:54.262Z,22.22
2023-09-09T02:24:20.820Z,22.21
2023-09-09T02:26:47.391Z,22.19
2023-09-09T02:29:13.918Z,22.17
2023-09-09T02:31:40.538Z,22.16
2023-09-09T02:34:07.195Z,22.13
2023-09-09T02:36:33.800Z,22.12
2023-09-09T02:39:00.375Z,22.09
2023-09-09T02:41:27.082Z,22.08
2023-09-09T02:43:53.585Z,22.06
2023-09-09T02:46:21.846Z,22.06
2023-09-09T02:48:49.437Z,22.06
2023-09-09T02:51:15.972Z,22.06
2023-09-09T02:53:42.505Z,22.05
2023-09-09T02:56:09.033Z,22.04
2023-09-09T02:58:35.590Z,22.05
2023-09-09T03:01:06.288Z,22.03
2023-09-09T03:03:35.199Z,22.06
2023-09-09T03:06:02.001Z,22.09
2023-09-09T03:08:29.095Z,22.10
2023-09-09T03:10:55.630Z,22.10
2023-09-09T03:13:22.237Z,22.13
2023-09-09T03:15:48.745Z,22.13
2023-09-09T03:18:15.516Z,22.16
2023-09-09T03:20:42.157Z,22.16
2023-09-09T03:23:08.974Z,22.16
2023-09-09T03:25:35.519Z,22.18
2023-09-09T03:28:02.152Z,22.17
2023-09-09T03:30:28.917Z,22.15
2023-09-09T03:32:55.592Z,22.14
2023-09-09T03:35:22.117Z,22.13
2023-09-09T03:37:48.714Z,22.13
2023-09-09T03:40:15.534Z,22.13
2023-09-09T03:42:42.287Z,22.12
2023-09-09T03:45:09.202Z,22.11
2023-09-09T03:47:35.805Z,22.09
2023-09-09T03:50:02.349Z,22.07
2023-09-09T03:52:29.450Z,22.05
2023-09-09T03:54:56.015Z,22.02
2023-09-09T03:57:22.676Z,21.97
2023-09-09T03:59:49.688Z,21.95
2023-09-09T04:02:36.316Z,21.93
2023-09-09T04:05:04.067Z,21.91
2023-09-09T04:07:30.779Z,21.88
2023-09-09T04:09:57.485Z,21.85
2023-09-09T04:12:24.119Z,21.82
2023-09-09T04:14:50.712Z,21.77
2023-09-09T04:17:17.240Z,21.75
2023-09-09T04:19:43.878Z,21.72
2023-09-09T04:22:10.445Z,21.71
2023-09-09T04:24:37.080Z,21.69
2023-09-09T04:27:03.879Z,21.70
2023-09-09T04:29:30.681Z,21.68
2023-09-09T04:31:57.346Z,21.67
2023-09-09T04:34:23.934Z,21.65
2023-09-09T04:36:50.506Z,21.64
2023-09-09T04:39:18.181Z,21.62
2023-09-09T04:41:46.432Z,21.59
2023-09-09T04:44:14.579Z,21.57
2023-09-09T04:46:41.169Z,21.56
2023-09-09T04:49:07.801Z,21.52
2023-09-09T04:51:35.261Z,21.49
2023-09-09T04:54:02.648Z,21.47
2023-09-09T04:56:29.225Z,21.44
2023-09-09T04:58:55.814Z,21.43
2023-09-09T05:01:22.709Z,21.41
2023-09-09T05:03:49.339Z,21.40
2023-09-09T05:06:15.893Z,21.39
2023-09-09T05:08:42.492Z,21.38
2023-09-09T05:11:09.078Z,21.36
2023-09-09T05:13:35.921Z,21.36
2023-09-09T05:16:04.279Z,21.32
2023-09-09T05:18:31.272Z,21.29
2023-09-09T05:20:57.773Z,21.26
2023-09-09T05:23:24.378Z,21.24
2023-09-09T05:25:51.437Z,21.20
2023-09-09T05:28:18.008Z,21.18
2023-09-09T05:30:44.735Z,21.14
2023-09-09T05:33:11.994Z,21.11
2023-09-09T05:35:38.647Z,21.08
2023-09-09T05:38:05.243Z,21.04
2023-09-09T05:40:31.805Z,21.03
2023-09-09T05:42:58.492Z,21.01
2023-09-09T05:45:25.033Z,20.97
2023-09-09T05:47:51.844Z,20.96
2023-09-09T05:50:18.350Z,20.95
2023-09-09T05:52:45.262Z,20.92
2023-09-09T05:55:12.567Z,20.89
2023-09-09T05:57:39.080Z,20.87
2023-09-09T06:00:06.637Z,20.84
2023-09-09T06:02:46.362Z,20.84
2023-09-09T06:05:12.971Z,20.84
2023-09-09T06:07:42.051Z,20.84
2023-09-09T06:10:09.751Z,20.85
2023-09-09T06:12:36.696Z,20.86
2023-09-09T06:15:03.562Z,20.87
2023-09-09T06:17:30.219Z,20.92
2023-09-09T06:19:56.810Z,20.96
2023-09-09T06:22:23.385Z,21.01
2023-09-09T06:24:50.029Z,21.06
2023-09-09T06:27:16.676Z,21.10
2023-09-09T06:29:43.356Z,21.14
2023-09-09T06:32:10.127Z,21.18
2023-09-09T06:34:37.183Z,21.23
2023-09-09T06:37:03.866Z,21.28
2023-09-09T06:39:30.433Z,21.33
2023-09-09T06:41:58.238Z,21.38
2023-09-09T06:44:30.405Z,21.43
2023-09-09T06:46:56.904Z,21.49
2023-09-09T06:49:23.436Z,21.54
2023-09-09T06:51:50.176Z,21.60
2023-09-09T06:54:16.716Z,21.68
2023-09-09T06:56:43.239Z,21.73
2023-09-09T06:59:09.734Z,21.79
2023-09-09T07:01:36.335Z,21.86
2023-09-09T07:04:02.986Z,21.93
2023-09-09T07:06:29.741Z,22.00
2023-09-09T07:08:56.226Z,22.06
2023-09-09T07:11:41.684Z,22.16
2023-09-09T07:14:08.203Z,22.24
2023-09-09T07:16:34.736Z,22.29
2023-09-09T07:19:01.469Z,22.38
2023-09-09T07:21:27.935Z,22.46
2023-09-09T07:23:54.418Z,22.54
2023-09-09T07:26:20.977Z,22.60
2023-09-09T07:28:47.487Z,22.70
2023-09-09T07:31:14.084Z,22.78
2023-09-09T07:33:40.943Z,22.84
2023-09-09T07:36:07.470Z,22.91
2023-09-09T07:38:33.980Z,23.02
2023-09-09T07:41:00.560Z,23.09
2023-09-09T07:43:27.135Z,23.18
2023-09-09T07:45:53.713Z,23.26
2023-09-09T07:48:20.277Z,23.37
2023-09-09T07:50:54.666Z,23.47
2023-09-09T07:53:22.072Z,23.57
2023-09-09T07:55:49.295Z,23.66
2023-09-09T07:58:16.735Z,23.74
2023-09-09T08:00:44.909Z,23.82
2023-09-09T08:03:12.420Z,23.94
2023-09-09T08:05:39.561Z,24.02
2023-09-09T08:08:09.150Z,24.12
2023-09-09T08:10:35.655Z,24.22
2023-09-09T08:13:02.576Z,24.36
2023-09-09T08:15:41.689Z,24.45
2023-09-09T08:18:08.647Z,24.59
2023-09-09T08:20:35.210Z,24.68
2023-09-09T08:23:01.742Z,24.80
2023-09-09T08:25:28.237Z,24.92
2023-09-09T08:27:54.962Z,25.02
2023-09-09T08:30:21.478Z,25.13
2023-09-09T08:32:48.026Z,25.21
2023-09-09T08:35:14.644Z,25.30
2023-09-09T08:37:41.208Z,25.42
2023-09-09T08:40:08.446Z,25.54
2023-09-09T08:42:49.123Z,25.65
2023-09-09T08:45:18.437Z,25.76
2023-09-09T08:47:46.332Z,25.87
2023-09-09T08:50:16.847Z,25.97
2023-09-09T08:52:44.842Z,26.09
2023-09-09T08:55:11.813Z,26.23
2023-09-09T08:57:38.650Z,26.38
2023-09-09T09:00:06.469Z,26.52
2023-09-09T09:02:35.004Z,26.65
2023-09-09T09:05:04.459Z,26.81
2023-09-09T09:07:32.318Z,27.00
2023-09-09T09:09:58.871Z,27.15
2023-09-09T09:12:28.827Z,27.33
2023-09-09T09:14:55.370Z,27.57
2023-09-09T09:17:22.984Z,27.91
2023-09-09T09:19:49.608Z,28.30
2023-09-09T09:22:17.546Z,28.70
2023-09-09T09:24:45.867Z,29.17
2023-09-09T09:27:16.458Z,29.65
2023-09-09T09:29:45.677Z,30.14
2023-09-09T09:32:12.757Z,30.65
2023-09-09T09:34:40.050Z,31.11
2023-09-09T09:37:14.301Z,31.55
2023-09-09T09:39:41.147Z,31.92
2023-09-09T09:42:11.499Z,32.30
2023-09-09T09:44:37.945Z,32.57
2023-09-09T09:47:09.287Z,32.95
2023-09-09T09:49:43.429Z,33.30
2023-09-09T09:52:10.195Z,33.70
2023-09-09T09:54:37.885Z,34.07
2023-09-09T09:57:06.207Z,34.40
2023-09-09T09:59:34.770Z,34.73
2023-09-09T10:02:01.787Z,35.12
2023-09-09T10:04:28.994Z,35.44
2023-09-09T10:06:57.080Z,35.73
2023-09-09T10:09:31.559Z,36.06
2023-09-09T10:12:06.422Z,36.36
2023-09-09T10:14:36.138Z,36.66
2023-09-09T10:17:06.341Z,36.88
2023-09-09T10:19:35.199Z,37.07
2023-09-09T10:22:02.313Z,37.32
2023-09-09T10:24:30.219Z,37.57
2023-09-09T10:26:57.890Z,37.82
2023-09-09T10:29:25.334Z,37.94
2023-09-09T10:31:53.541Z,38.02
2023-09-09T10:34:21.714Z,38.17
2023-09-09T10:39:26.574Z,38.64
2023-09-09T10:41:55.265Z,38.76
2023-09-09T10:44:21.942Z,38.91
2023-09-09T10:46:54.411Z,39.09
2023-09-09T10:49:25.331Z,39.21
2023-09-09T10:51:52.516Z,39.32
2023-09-09T10:54:20.569Z,39.33
2023-09-09T10:56:48.836Z,39.32
2023-09-09T10:59:24.287Z,39.27
2023-09-09T11:02:11.801Z,39.13
2023-09-09T11:04:40.738Z,38.90
2023-09-09T11:07:12.317Z,38.57
2023-09-09T11:09:39.035Z,38.27
2023-09-09T11:12:13.176Z,37.97
2023-09-09T11:14:44.342Z,37.65
2023-09-09T11:17:11.608Z,37.37
2023-09-09T11:19:39.272Z,37.06
2023-09-09T11:22:07.754Z,36.75
2023-09-09T11:24:37.323Z,36.45
2023-09-09T11:27:06.968Z,36.18
2023-09-09T11:29:37.598Z,35.89
2023-09-09T11:32:09.341Z,35.66
2023-09-09T11:34:36.001Z,35.48
2023-09-09T11:37:04.068Z,35.30
2023-09-09T11:39:39.047Z,35.15
2023-09-09T11:42:05.666Z,34.93
2023-09-09T11:44:40.855Z,34.73
2023-09-09T11:47:08.378Z,34.57
2023-09-09T11:49:36.066Z,34.43
2023-09-09T11:52:02.764Z,34.31
2023-09-09T11:54:30.859Z,34.21
2023-09-09T11:57:05.804Z,34.08
2023-09-09T11:59:32.415Z,33.97
2023-09-09T12:02:00.891Z,33.86
2023-09-09T12:04:27.633Z,33.77
2023-09-09T12:06:55.521Z,33.70
2023-09-09T12:09:22.748Z,33.61
2023-09-09T12:11:49.969Z,33.56
2023-09-09T12:14:17.191Z,33.54
2023-09-09T12:16:44.924Z,33.53
2023-09-09T12:19:14.899Z,33.51
2023-09-09T12:21:48.135Z,33.48
2023-09-09T12:24:14.800Z,33.41
2023-09-09T12:26:54.274Z,33.32
2023-09-09T12:29:21.418Z,33.27
2023-09-09T12:31:53.759Z,33.18
2023-09-09T12:34:21.344Z,33.11
2023-09-09T12:36:49.215Z,33.07
2023-09-09T12:39:36.043Z,32.99
2023-09-09T12:42:06.665Z,32.94
2023-09-09T12:44:34.292Z,32.90
2023-09-09T12:47:05.010Z,32.91
2023-09-09T12:49:32.965Z,32.91
2023-09-09T12:51:59.486Z,32.87
2023-09-09T12:54:26.083Z,32.81
2023-09-09T12:56:52.659Z,32.76
2023-09-09T12:59:19.216Z,32.72
2023-09-09T13:01:45.779Z,32.70
2023-09-09T13:04:12.478Z,32.69
2023-09-09T13:06:38.996Z,32.68
2023-09-09T13:09:05.572Z,32.66
2023-09-09T13:11:32.240Z,32.62
2023-09-09T13:14:07.419Z,32.62
2023-09-09T13:16:45.548Z,32.61
2023-09-09T13:19:12.137Z,32.62
2023-09-09T13:21:38.718Z,32.63
2023-09-09T13:24:05.711Z,32.67
2023-09-09T13:26:32.269Z,32.68
2023-09-09T13:28:58.772Z,32.70
2023-09-09T13:31:25.307Z,32.73
2023-09-09T13:33:51.856Z,32.76
2023-09-09T13:36:18.387Z,32.77
2023-09-09T13:38:44.989Z,32.83
2023-09-09T13:41:11.550Z,32.87
2023-09-09T13:43:38.355Z,32.92
2023-09-09T13:46:05.125Z,32.97
2023-09-09T13:48:31.634Z,33.03
2023-09-09T13:50:58.155Z,33.06
2023-09-09T13:53:24.776Z,33.09
2023-09-09T13:55:51.312Z,33.12
2023-09-09T13:58:17.785Z,33.14
2023-09-09T14:00:44.417Z,33.16
2023-09-09T14:03:11.137Z,33.23
2023-09-09T14:05:37.823Z,33.29
2023-09-09T14:08:04.650Z,33.33
2023-09-09T14:10:34.458Z,33.39
2023-09-09T14:13:01.122Z,33.45
2023-09-09T14:15:27.707Z,33.50
2023-09-09T14:17:54.350Z,33.59
2023-09-09T14:20:21.013Z,33.68
2023-09-09T14:22:47.541Z,33.77
2023-09-09T14:25:14.135Z,33.90
2023-09-09T14:27:41.468Z,34.04
2023-09-09T14:30:08.598Z,34.16
2023-09-09T14:32:35.160Z,34.30
2023-09-09T14:35:01.706Z,34.47
2023-09-09T14:37:28.247Z,34.62
2023-09-09T14:39:54.737Z,34.79
2023-09-09T14:42:21.302Z,34.90
2023-09-09T14:44:48.798Z,35.02
2023-09-09T14:47:15.603Z,35.12
2023-09-09T14:49:42.498Z,35.18
2023-09-09T14:52:09.354Z,35.23
2023-09-09T14:54:36.376Z,35.31
2023-09-09T14:57:03.229Z,35.39
2023-09-09T14:59:30.963Z,35.42
2023-09-09T15:01:57.546Z,35.42
2023-09-09T15:04:24.172Z,35.36
2023-09-09T15:06:50.831Z,35.28
2023-09-09T15:09:17.331Z,35.24
2023-09-09T15:11:43.997Z,35.19
2023-09-09T15:14:13.697Z,35.14
2023-09-09T15:16:46.741Z,35.09
2023-09-09T15:19:14.038Z,35.10
2023-09-09T15:21:40.819Z,35.05
2023-09-09T15:24:07.740Z,35.01
2023-09-09T15:26:34.363Z,34.98
2023-09-09T15:29:01.191Z,34.96
2023-09-09T15:31:27.782Z,34.95
2023-09-09T15:33:54.431Z,34.91
2023-09-09T15:36:21.192Z,34.89
2023-09-09T15:38:47.882Z,34.87
2023-09-09T15:41:14.378Z,34.83
2023-09-09T15:43:45.885Z,34.78
2023-09-09T15:46:12.580Z,34.74
2023-09-09T15:48:39.335Z,34.70
2023-09-09T15:51:06.787Z,34.68
2023-09-09T15:53:33.852Z,34.67
2023-09-09T15:56:00.404Z,34.63
2023-09-09T15:58:26.946Z,34.63
2023-09-09T16:00:53.576Z,34.61
2023-09-09T16:03:20.123Z,34.57
2023-09-09T16:05:46.731Z,34.53
2023-09-09T16:08:13.270Z,34.49
2023-09-09T16:10:39.849Z,34.44
2023-09-09T16:13:06.492Z,34.39
2023-09-09T16:15:33.291Z,34.31
2023-09-09T16:17:59.876Z,34.23
2023-09-09T16:20:26.584Z,34.25
2023-09-09T16:22:53.594Z,34.37
2023-09-09T16:25:20.294Z,34.51
2023-09-09T16:27:46.825Z,34.72
2023-09-09T16:30:13.519Z,34.90
2023-09-09T16:32:40.131Z,35.08
2023-09-09T16:35:07.572Z,35.22
2023-09-09T16:37:34.456Z,35.34
2023-09-09T16:40:01.075Z,35.49
2023-09-09T16:42:27.633Z,35.63
2023-09-09T16:44:54.177Z,35.61
2023-09-09T16:47:20.668Z,35.60
2023-09-09T16:49:47.314Z,35.62
2023-09-09T16:52:13.862Z,35.63
2023-09-09T16:54:40.483Z,35.59
2023-09-09T16:57:07.042Z,35.54
2023-09-09T16:59:40.770Z,35.49
2023-09-09T17:02:10.092Z,35.37
2023-09-09T17:04:36.840Z,35.24
2023-09-09T17:07:03.842Z,35.08
2023-09-09T17:09:33.331Z,34.88
2023-09-09T17:11:59.911Z,34.75
2023-09-09T17:14:26.473Z,34.60
2023-09-09T17:16:52.987Z,34.46
2023-09-09T17:19:19.590Z,34.31
2023-09-09T17:21:46.181Z,34.14
2023-09-09T17:24:12.700Z,33.98
2023-09-09T17:26:39.268Z,33.81
2023-09-09T17:29:05.799Z,33.63
2023-09-09T17:31:32.547Z,33.46
2023-09-09T17:33:59.118Z,33.26
2023-09-09T17:36:25.906Z,33.09
2023-09-09T17:39:07.119Z,32.85
2023-09-09T17:41:33.857Z,32.66
2023-09-09T17:44:01.009Z,32.50
2023-09-09T17:46:27.636Z,32.37
2023-09-09T17:48:55.917Z,32.20
2023-09-09T17:51:22.873Z,32.07
2023-09-09T17:53:49.387Z,31.93
2023-09-09T17:56:15.946Z,31.78
2023-09-09T17:58:42.559Z,31.62
2023-09-09T18:01:09.144Z,31.48
2023-09-09T18:03:35.808Z,31.35
2023-09-09T18:06:03.995Z,31.23
2023-09-09T18:08:30.651Z,31.10
2023-09-09T18:10:57.274Z,30.98
2023-09-09T18:13:23.909Z,30.86
2023-09-09T18:15:51.212Z,30.74
2023-09-09T18:18:17.772Z,30.63
2023-09-09T18:20:44.454Z,30.51
2023-09-09T18:23:10.972Z,30.42
2023-09-09T18:25:37.759Z,30.31
2023-09-09T18:28:04.730Z,30.24
2023-09-09T18:30:31.288Z,30.11
2023-09-09T18:32:57.835Z,30.03
2023-09-09T18:35:24.488Z,29.92
2023-09-09T18:37:51.056Z,29.83
2023-09-09T18:40:17.846Z,29.71
2023-09-09T18:42:44.419Z,29.62
2023-09-09T18:45:10.976Z,29.53
2023-09-09T18:47:37.567Z,29.43
2023-09-09T18:50:04.364Z,29.33
2023-09-09T18:52:30.893Z,29.25
2023-09-09T18:54:57.438Z,29.15
2023-09-09T18:57:23.975Z,29.06
2023-09-09T18:59:50.538Z,28.98
2023-09-09T19:02:17.125Z,28.89
2023-09-09T19:04:43.994Z,28.82
2023-09-09T19:07:11.221Z,28.74
2023-09-09T19:09:44.596Z,28.65
2023-09-09T19:12:11.147Z,28.55
2023-09-09T19:14:37.667Z,28.49
2023-09-09T19:17:04.391Z,28.42
2023-09-09T19:19:30.903Z,28.35
2023-09-09T19:21:57.426Z,28.30
2023-09-09T19:24:23.929Z,28.22
2023-09-09T19:26:50.456Z,28.14
2023-09-09T19:29:16.953Z,28.07
2023-09-09T19:31:43.507Z,27.99
2023-09-09T19:34:10.041Z,27.94
2023-09-09T19:36:36.585Z,27.89
2023-09-09T19:39:03.580Z,27.84
2023-09-09T19:41:30.212Z,27.77
2023-09-09T19:43:57.034Z,27.71
2023-09-09T19:46:23.764Z,27.66
2023-09-09T19:48:50.409Z,27.63
2023-09-09T19:51:16.901Z,27.57
2023-09-09T19:53:43.442Z,27.51
2023-09-09T19:56:09.950Z,27.44
2023-09-09T19:58:36.784Z,27.38
2023-09-09T20:01:04.440Z,27.34
2023-09-09T20:03:31.024Z,27.29
2023-09-09T20:05:57.695Z,27.25
2023-09-09T20:08:24.222Z,27.20
2023-09-09T20:10:50.758Z,27.15
2023-09-09T20:13:17.288Z,27.11
2023-09-09T20:15:43.843Z,27.05
2023-09-09T20:18:10.440Z,27.02
2023-09-09T20:20:39.769Z,26.95
2023-09-09T20:23:06.411Z,26.93
2023-09-09T20:25:33.010Z,26.87
2023-09-09T20:27:59.562Z,26.82
2023-09-09T20:30:26.088Z,26.79
2023-09-09T20:32:52.705Z,26.74
2023-09-09T20:35:33.604Z,26.67
2023-09-09T20:38:02.193Z,26.58
2023-09-09T20:40:28.778Z,26.51
2023-09-09T20:42:58.390Z,26.41
2023-09-09T20:45:26.575Z,26.32
2023-09-09T20:47:54.528Z,26.24
2023-09-09T20:50:23.839Z,26.17
2023-09-09T20:52:51.837Z,26.11
2023-09-09T20:55:19.518Z,26.07
2023-09-09T20:57:46.043Z,26.04
2023-09-09T21:00:13.228Z,26.00
2023-09-09T21:02:45.127Z,25.95
2023-09-09T21:05:11.842Z,25.92
2023-09-09T21:07:38.670Z,25.87
2023-09-09T21:10:06.070Z,25.82
2023-09-09T21:12:32.592Z,25.80
2023-09-09T21:14:59.151Z,25.75
2023-09-09T21:17:25.787Z,25.70
2023-09-09T21:19:52.546Z,25.66
2023-09-09T21:22:19.249Z,25.64
2023-09-09T21:24:45.742Z,25.60
2023-09-09T21:27:12.233Z,25.54
2023-09-09T21:29:38.904Z,25.49
2023-09-09T21:32:06.051Z,25.43
2023-09-09T21:34:32.663Z,25.36
2023-09-09T21:36:59.157Z,25.31
2023-09-09T21:39:27.278Z,25.23
2023-09-09T21:41:53.777Z,25.17
2023-09-09T21:44:20.283Z,25.13
2023-09-09T21:46:46.909Z,25.05
2023-09-09T21:49:13.480Z,24.98
2023-09-09T21:51:40.103Z,24.89
2023-09-09T21:54:06.840Z,24.82
2023-09-09T21:56:33.379Z,24.74
2023-09-09T21:58:59.924Z,24.66
2023-09-09T22:01:26.433Z,24.58
2023-09-09T22:03:53.306Z,24.52
2023-09-09T22:06:19.907Z,24.45
2023-09-09T22:08:46.517Z,24.40
2023-09-09T22:11:12.999Z,24.35
2023-09-09T22:13:39.780Z,24.28
2023-09-09T22:16:07.629Z,24.21
2023-09-09T22:18:34.675Z,24.17
2023-09-09T22:21:05.073Z,24.16
2023-09-09T22:23:31.689Z,24.16
2023-09-09T22:25:58.304Z,24.15
2023-09-09T22:28:24.864Z,24.16
2023-09-09T22:30:51.425Z,24.15
2023-09-09T22:33:18.032Z,24.14
2023-09-09T22:35:44.570Z,24.13
2023-09-09T22:38:12.969Z,24.13
2023-09-09T22:40:39.481Z,24.12
2023-09-09T22:43:06.007Z,24.10
2023-09-09T22:45:32.501Z,24.06
2023-09-09T22:47:59.086Z,24.05
2023-09-09T22:50:25.594Z,24.03
2023-09-09T22:52:52.141Z,23.99
2023-09-09T22:55:18.673Z,23.96
2023-09-09T22:57:45.779Z,23.94
2023-09-09T23:00:12.826Z,23.91
2023-09-09T23:02:39.446Z,23.87
2023-09-09T23:05:06.242Z,23.85
2023-09-09T23:07:45.957Z,23.83
2023-09-09T23:10:18.513Z,23.81
2023-09-09T23:12:45.045Z,23.78
2023-09-09T23:15:11.637Z,23.74
2023-09-09T23:17:38.191Z,23.70
2023-09-09T23:20:05.371Z,23.67
2023-09-09T23:22:31.979Z,23.63
2023-09-09T23:24:58.672Z,23.60
2023-09-09T23:27:25.193Z,23.54
2023-09-09T23:29:51.729Z,23.50
2023-09-09T23:32:18.369Z,23.44
2023-09-09T23:34:45.041Z,23.39
2023-09-09T23:37:11.522Z,23.36
2023-09-09T23:39:38.024Z,23.33
2023-09-09T23:42:04.691Z,23.32
2023-09-09T23:44:31.184Z,23.29
2023-09-09T23:46:57.704Z,23.26
2023-09-09T23:49:24.270Z,23.26
2023-09-09T23:51:50.973Z,23.27
2023-09-09T23:54:17.467Z,23.26
2023-09-09T23:56:43.985Z,23.26
2023-09-09T23:59:10.622Z,23.26
